Павлодар

Карта отелей и гостиниц, располагающихся рядом с аэропортом Павлодар :

Павлодар Павлодарская область 52° 11' 43.26" N, 77° 4' 23.8188" E
Код аэродрома ИКАО
UASP
Код аэродрома RU
УАСП
Координаты
N52.19535° E077.07328°
Превышение над уровнем моря
125
Основная полоса
03L/21R
Курс магнитный
034/214
Длина основной ВПП
2500
Ширина основной ВПП
45
Покрытие основной ВПП
Твёрдое (асфальтобетон)
Освещение ВПП
Постоянное
Тип: 
Аэродром
Принадлежность: 
ГА
Статус: 
Действующий
Сайт: 
http://www.airport.pvl.kz/
Страна: 
Казахстан
Регион: 
Павлодарская область
Дополнительная информация: 
Эксплуатант: АО «Аэропорт Павлодар». 2 класса, способен принимать воздушные суда Ил-76, Ту-134, Ту-154, Як-42, Ан-12, Ил-18 и более лёгкие, а также вертолёты всех типов.
Погода: 

Авиационная погода в Павлодаре

Регион: 
Погода METAR: 
UASP 290100Z 25004MPS 9999 OVC014CB M03/M04 Q1029 R21/19//60 NOSIG RMK QFE761/1014
Время наблюдения
2020-10-29T01:00:00Z
Температура C
-3.0
Точка росы
-4.0
Направление ветра
250
Скорость ветра (узлы)
8
Метео видимость
6.21
Явления погоды
Условия полета
MVFR
Аэропорт подробнее: 

Найти трансфер

С помощью этой формы Вы можете найти трансфер из аэропорта Павлодар в город, аэропорт или вокзал:

Карта места

Javascript is required to view this map.

Погода в аэропортах:

Авиационная погода в Гродно

Регион: 
Погода METAR: 
UMMG 281300Z 17004MPS 3900 BR OVC004 10/10 Q1015 R17/CLRD// NOSIG RMK QBB130
Время наблюдения
2020-10-28T13:00:00Z
Температура C
10.0
Точка росы
10.0
Направление ветра
170
Скорость ветра (узлы)
8
Метео видимость
2.42
Явления погоды
BR
Условия полета
LIFR
Аэропорт подробнее: 

Авиационная погода в аэропорту Имени Алексея Леонова

Регион: 
Погода METAR: 
UNEE 290100Z 24006MPS 9000 -SHSN OVC031CB M05/M08 Q1019 R23/451031 NOSIG RMK QFE741
Время наблюдения
2020-10-29T01:00:00Z
Температура C
-5.0
Точка росы
-8.0
Направление ветра
240
Скорость ветра (узлы)
12
Метео видимость
5.59
Явления погоды
-SHSN
Условия полета
VFR
Аэропорт подробнее: 

Авиационная погода в Констанце

Регион: 
Погода METAR: 
LRCK 290100Z 34004KT 1500 BR NSC 11/11 Q1016 NOSIG
Время наблюдения
2020-10-29T01:00:00Z
Температура C
11.0
Точка росы
11.0
Направление ветра
340
Скорость ветра (узлы)
4
Метео видимость
0.93
Явления погоды
BR
Условия полета
LIFR

Авиационная погода в Витебске

Регион: 
Погода METAR: 
UMII 281536Z 17004G07MPS 4300 BR FEW030 11/09 Q1017 R23/110075 TEMPO 2000 SCT005
Время наблюдения
2020-10-28T15:36:00Z
Температура C
11.0
Точка росы
9.0
Направление ветра
170
Скорость ветра (узлы)
8
Метео видимость
2.67
Явления погоды
BR
Условия полета
IFR